Time;durP1;ratioP1;P1;durP2;ratioP2;P2;SDS_P1;SDS_P2;PMS_P1;PMS_P2;Temp;Humidity;BMP_temperature;BMP_pressure;BME280_temperature;BME280_humidity;BME280_pressure;Samples;Min_cycle;Max_cycle;Signal;HPM_P1;HPM_P2
2023/08/23 00:00:07;;;;;;;3.63;2.97;;;;;;;16.64;96.80;101978.63;5101937;28;20077;-56
2023/08/23 00:02:33;;;;;;;5.28;2.95;;;;;;;16.60;96.39;101968.28;5095940;28;20063;-54
2023/08/23 00:04:58;;;;;;;4.15;3.10;;;;;;;16.59;97.12;101974.66;5097968;28;20040;-54
2023/08/23 00:07:24;;;;;;;4.78;2.85;;;;;;;16.59;96.25;101966.59;5096783;28;20027;-53
2023/08/23 00:09:49;;;;;;;5.05;2.90;;;;;;;16.57;97.33;101968.53;5098042;28;20035;-54
2023/08/23 00:12:15;;;;;;;4.00;2.70;;;;;;;16.52;96.82;101966.28;5094949;28;20430;-53
2023/08/23 00:14:41;;;;;;;5.00;3.00;;;;;;;16.45;97.64;101965.94;5100432;28;20121;-56
2023/08/23 00:17:06;;;;;;;2.90;2.60;;;;;;;16.45;97.98;101965.94;5099315;28;20020;-55
2023/08/23 00:19:32;;;;;;;4.22;2.80;;;;;;;16.44;97.88;101966.06;5100362;28;20023;-53
2023/08/23 00:21:57;;;;;;;5.03;3.00;;;;;;;16.42;98.09;101957.25;5103352;28;20533;-53
2023/08/23 00:24:22;;;;;;;4.95;3.17;;;;;;;16.41;97.87;101960.94;5091994;28;20024;-53
2023/08/23 00:26:47;;;;;;;5.13;2.95;;;;;;;16.37;97.75;101967.53;5100992;28;20064;-52
2023/08/23 00:29:13;;;;;;;6.05;2.65;;;;;;;16.34;97.89;101959.78;5098665;28;20047;-53
2023/08/23 00:31:38;;;;;;;3.45;3.10;;;;;;;16.30;97.96;101961.81;5098381;28;20058;-55
2023/08/23 00:34:03;;;;;;;3.28;2.80;;;;;;;16.24;97.55;101957.00;5099573;28;20024;-55
2023/08/23 00:36:29;;;;;;;4.63;2.90;;;;;;;16.20;98.32;101947.50;5100977;28;20028;-55
2023/08/23 00:38:55;;;;;;;3.22;2.85;;;;;;;16.24;98.01;101951.63;5100700;28;20074;-54
2023/08/23 00:41:22;;;;;;;4.25;2.53;;;;;;;16.23;97.88;101945.41;5102086;28;20055;-54
2023/08/23 00:43:47;;;;;;;3.72;2.47;;;;;;;16.19;98.13;101940.44;5100476;28;20028;-55
2023/08/23 00:46:14;;;;;;;3.60;2.60;;;;;;;16.16;98.46;101935.34;5095711;28;20036;-54
2023/08/23 00:48:40;;;;;;;7.45;2.78;;;;;;;16.12;98.68;101936.56;5098897;28;20176;-54
2023/08/23 00:51:06;;;;;;;4.38;2.67;;;;;;;16.11;98.64;101937.56;5099267;28;20111;-54
2023/08/23 00:53:32;;;;;;;3.25;2.40;;;;;;;16.08;98.93;101935.97;5098214;28;20359;-53
2023/08/23 00:55:59;;;;;;;5.13;2.42;;;;;;;16.11;97.86;101937.56;5107026;28;20047;-55
2023/08/23 00:58:24;;;;;;;2.70;2.50;;;;;;;16.09;98.03;101937.69;5101088;28;20023;-53
2023/08/23 01:00:50;;;;;;;4.35;2.50;;;;;;;16.04;98.20;101927.34;5101690;28;20096;-53
2023/08/23 01:03:15;;;;;;;3.47;2.50;;;;;;;16.04;98.14;101935.38;5097503;28;20035;-53
2023/08/23 01:05:59;;;;;;;4.38;2.83;;;;;;;16.03;97.91;101928.28;5105084;28;20031;-53
2023/08/23 01:08:29;;;;;;;7.07;2.90;;;;;;;16.01;98.63;101930.25;5104373;28;20027;-53
2023/08/23 01:11:01;;;;;;;3.53;2.92;;;;;;;15.98;98.64;101935.03;5103547;28;20028;-53
2023/08/23 01:13:40;;;;;;;4.90;2.80;;;;;;;15.98;98.87;101938.53;5104998;28;20036;-53
2023/08/23 01:16:09;;;;;;;4.78;2.90;;;;;;;15.95;98.52;101941.47;5103811;28;20082;-52
2023/08/23 01:18:35;;;;;;;4.20;3.05;;;;;;;15.93;98.72;101946.13;5094747;28;20370;-54
2023/08/23 01:21:03;;;;;;;3.92;3.03;;;;;;;15.87;98.52;101941.25;5104176;28;20069;-53
2023/08/23 01:23:29;;;;;;;3.70;2.90;;;;;;;15.84;98.85;101939.69;5100769;28;20032;-53
2023/08/23 01:25:54;;;;;;;3.95;2.72;;;;;;;15.81;98.68;101949.81;5096744;28;20039;-55
2023/08/23 01:28:20;;;;;;;4.45;3.13;;;;;;;15.82;98.71;101941.66;5099004;28;20023;-53
2023/08/23 01:30:48;;;;;;;5.97;2.70;;;;;;;15.75;98.65;101934.19;5099627;28;20068;-53
2023/08/23 01:33:28;;;;;;;4.45;2.65;;;;;;;15.79;98.15;101949.94;5104019;28;20072;-55
2023/08/23 01:36:21;;;;;;;4.03;3.33;;;;;;;15.81;98.24;101941.78;5098293;28;20042;-53
2023/08/23 01:38:48;;;;;;;4.97;3.50;;;;;;;15.71;98.67;101945.16;5098363;28;20484;-54
2023/08/23 01:41:15;;;;;;;7.45;3.38;;;;;;;15.71;98.73;101938.94;5101283;28;20046;-54
2023/08/23 01:43:40;;;;;;;5.03;3.50;;;;;;;15.69;99.12;101925.69;5086295;28;20028;-55
2023/08/23 01:46:05;;;;;;;3.85;3.45;;;;;;;15.67;99.33;101921.41;5107157;28;20500;-56
2023/08/23 01:48:31;;;;;;;4.93;3.38;;;;;;;15.63;98.98;101923.50;5098620;28;20027;-52
2023/08/23 01:50:56;;;;;;;5.40;3.60;;;;;;;15.60;99.41;101921.06;5104831;28;20023;-53
2023/08/23 01:53:21;;;;;;;5.85;3.75;;;;;;;15.61;99.85;101928.13;5095428;28;20127;-54
2023/08/23 01:55:46;;;;;;;4.90;3.33;;;;;;;15.60;99.70;101937.13;5102987;28;20537;-55
2023/08/23 01:58:12;;;;;;;5.78;3.42;;;;;;;15.59;99.97;101934.56;5105995;28;20028;-52
2023/08/23 02:00:37;;;;;;;4.68;3.47;;;;;;;15.59;99.42;101926.53;5100583;28;20031;-52
2023/08/23 02:03:03;;;;;;;6.15;3.20;;;;;;;15.55;99.53;101936.66;5101329;28;20659;-52
2023/08/23 02:05:31;;;;;;;3.40;3.03;;;;;;;15.54;99.07;101934.97;5096701;28;20101;-53
2023/08/23 02:07:56;;;;;;;4.93;3.20;;;;;;;15.51;98.78;101927.16;5104026;28;20099;-55
2023/08/23 02:10:21;;;;;;;3.30;2.65;;;;;;;15.44;98.75;101932.16;5106557;28;20056;-52
2023/08/23 02:12:47;;;;;;;3.90;3.45;;;;;;;15.35;98.88;101928.41;5097000;28;20032;-53
2023/08/23 02:15:12;;;;;;;3.38;3.08;;;;;;;15.33;99.54;101934.84;5106693;28;20517;-53
2023/08/23 02:17:38;;;;;;;5.15;3.47;;;;;;;15.25;99.21;101932.75;5101522;28;20028;-53
2023/08/23 02:20:04;;;;;;;4.90;3.53;;;;;;;15.23;99.94;101929.34;5098925;28;20023;-53
2023/08/23 02:22:29;;;;;;;4.22;3.42;;;;;;;15.20;99.61;101934.09;5100729;28;20023;-53
2023/08/23 02:24:54;;;;;;;3.53;3.22;;;;;;;15.16;99.00;101933.50;5106112;28;20022;-53
2023/08/23 02:27:20;;;;;;;5.75;3.30;;;;;;;15.12;99.84;101929.34;5100962;27;20020;-56
2023/08/23 02:29:45;;;;;;;6.37;3.70;;;;;;;15.10;99.35;101926.78;5102948;28;20477;-53
2023/08/23 02:32:10;;;;;;;4.82;3.42;;;;;;;15.09;99.99;101922.44;5099918;28;20317;-53
2023/08/23 02:34:35;;;;;;;3.63;3.00;;;;;;;15.08;99.98;101926.06;5101683;28;20443;-54
2023/08/23 02:37:01;;;;;;;5.57;3.22;;;;;;;15.04;99.80;101924.63;5093635;28;20028;-53
2023/08/23 02:39:27;;;;;;;5.68;3.10;;;;;;;15.02;100.00;101925.69;5104183;28;20047;-55
2023/08/23 02:41:52;;;;;;;5.13;3.30;;;;;;;15.04;100.00;101929.09;5101937;27;20024;-56
2023/08/23 02:44:17;;;;;;;6.47;3.38;;;;;;;15.02;99.68;101920.34;5102575;28;20035;-54
2023/08/23 02:46:42;;;;;;;4.50;3.33;;;;;;;14.97;99.74;101924.25;5097615;28;20028;-55
2023/08/23 02:49:08;;;;;;;7.22;3.33;;;;;;;14.98;99.97;101930.44;5096137;28;20051;-54
2023/08/23 02:51:33;;;;;;;3.88;3.35;;;;;;;14.91;99.88;101926.56;5101731;28;20040;-53
2023/08/23 02:53:58;;;;;;;4.68;3.55;;;;;;;14.88;100.00;101924.13;5098673;28;20035;-55
2023/08/23 02:56:24;;;;;;;3.65;3.35;;;;;;;14.84;100.00;101918.16;5098133;28;20104;-53
2023/08/23 02:58:49;;;;;;;3.17;2.88;;;;;;;14.86;100.00;101918.88;5104425;28;20024;-54
2023/08/23 03:01:16;;;;;;;4.05;3.20;;;;;;;14.86;100.00;101913.53;5097669;28;20028;-55
2023/08/23 03:03:41;;;;;;;3.80;2.90;;;;;;;14.79;100.00;101905.13;5104512;28;20482;-55
2023/08/23 03:06:07;;;;;;;3.60;3.30;;;;;;;14.78;100.00;101907.91;5089507;28;20031;-55
2023/08/23 03:08:32;;;;;;;3.50;3.20;;;;;;;14.76;100.00;101908.03;5104293;28;20032;-56
2023/08/23 03:11:05;;;;;;;5.03;3.35;;;;;;;14.74;100.00;101909.97;5096344;28;20024;-56
2023/08/23 03:13:31;;;;;;;4.43;3.08;;;;;;;14.76;100.00;101910.72;5103260;28;20032;-56
2023/08/23 03:15:56;;;;;;;6.30;3.35;;;;;;;14.70;99.92;101910.34;5098486;28;20025;-56
2023/08/23 03:18:22;;;;;;;6.03;3.50;;;;;;;14.70;100.00;101907.66;5100062;28;20086;-54
2023/08/23 03:20:51;;;;;;;5.30;3.08;;;;;;;14.65;99.77;101908.00;5093169;28;20032;-55
2023/08/23 03:23:19;;;;;;;4.72;3.10;;;;;;;14.59;100.00;101900.47;5099797;28;20039;-55
2023/08/23 03:25:46;;;;;;;6.45;3.20;;;;;;;14.60;100.00;101903.03;5099873;28;20051;-53
2023/08/23 03:28:14;;;;;;;4.43;3.20;;;;;;;14.56;100.00;101904.19;5100456;28;20032;-56
2023/08/23 03:30:40;;;;;;;4.10;3.22;;;;;;;14.53;100.00;101906.25;5098528;28;20024;-56
2023/08/23 03:33:05;;;;;;;3.30;3.00;;;;;;;14.51;100.00;101903.69;5100189;28;20069;-54
2023/08/23 03:35:31;;;;;;;3.97;3.15;;;;;;;14.51;100.00;101909.03;5101506;28;20043;-54
2023/08/23 03:37:57;;;;;;;5.35;3.40;;;;;;;14.45;100.00;101912.19;5096373;28;20890;-54
2023/08/23 03:40:22;;;;;;;5.53;3.25;;;;;;;14.48;100.00;101913.78;5098435;28;20116;-55
2023/08/23 03:42:47;;;;;;;5.72;3.28;;;;;;;14.49;100.00;101911.00;5100122;28;20110;-53
2023/08/23 03:45:13;;;;;;;5.53;3.33;;;;;;;14.47;100.00;101902.25;5097468;28;20043;-56
2023/08/23 03:47:38;;;;;;;5.47;3.58;;;;;;;14.43;100.00;101903.44;5101135;28;20277;-53
2023/08/23 03:50:04;;;;;;;3.95;3.17;;;;;;;14.41;100.00;101900.03;5096700;28;20044;-54
2023/08/23 03:52:29;;;;;;;5.40;3.10;;;;;;;14.37;100.00;101901.22;5103968;28;20072;-54
2023/08/23 03:54:55;;;;;;;6.15;3.05;;;;;;;14.37;100.00;101909.22;5101601;28;20024;-52
2023/08/23 03:57:20;;;;;;;5.20;3.08;;;;;;;14.40;100.00;101906.31;5101745;28;20028;-53
2023/08/23 03:59:45;;;;;;;5.00;3.03;;;;;;;14.41;100.00;101910.72;5099955;28;20029;-54
2023/08/23 04:02:11;;;;;;;4.43;3.30;;;;;;;14.41;100.00;101908.03;5097254;28;20036;-51
2023/08/23 04:04:36;;;;;;;7.72;3.13;;;;;;;14.42;100.00;101902.59;5095513;28;20032;-55
2023/08/23 04:07:01;;;;;;;3.85;3.17;;;;;;;14.42;100.00;101907.94;5099719;28;20718;-55
2023/08/23 04:09:26;;;;;;;4.60;3.40;;;;;;;14.43;100.00;101904.28;5092865;28;20355;-55
2023/08/23 04:11:52;;;;;;;4.88;3.20;;;;;;;14.41;100.00;101910.72;5105095;28;20024;-55
2023/08/23 04:14:17;;;;;;;5.05;3.80;;;;;;;14.41;100.00;101910.72;5099928;28;20099;-55
2023/08/23 04:16:42;;;;;;;6.40;3.60;;;;;;;14.41;100.00;101908.88;5100330;28;20361;-54
2023/08/23 04:19:08;;;;;;;4.72;3.70;;;;;;;14.40;100.00;101915.19;5095713;28;20098;-53
2023/08/23 04:21:33;;;;;;;7.18;3.83;;;;;;;14.35;100.00;101909.34;5100982;28;20031;-53
2023/08/23 04:23:59;;;;;;;5.20;3.70;;;;;;;14.31;100.00;101923.06;5094757;28;20020;-54
2023/08/23 04:26:25;;;;;;;8.38;4.18;;;;;;;14.25;100.00;101913.69;5101635;28;20024;-55
2023/08/23 04:28:50;;;;;;;4.88;3.40;;;;;;;14.26;100.00;101920.75;5103140;28;20358;-54
2023/08/23 04:31:15;;;;;;;6.70;3.88;;;;;;;14.26;100.00;101910.06;5107569;28;20397;-55
2023/08/23 04:33:42;;;;;;;4.95;3.42;;;;;;;14.23;100.00;101913.78;5099573;28;20504;-53
2023/08/23 04:36:07;;;;;;;5.60;4.00;;;;;;;14.22;100.00;101924.59;5095907;28;20031;-56
2023/08/23 04:38:32;;;;;;;6.50;3.78;;;;;;;14.25;100.00;101922.56;5098691;28;20386;-56
2023/08/23 04:41:02;;;;;;;5.68;4.47;;;;;;;14.19;100.00;101923.03;5099876;28;20020;-56
2023/08/23 04:43:27;;;;;;;6.28;4.22;;;;;;;14.17;100.00;101919.63;5106443;28;20485;-55
2023/08/23 04:45:57;;;;;;;8.95;3.88;;;;;;;14.18;100.00;101920.47;5105755;28;20033;-56
2023/08/23 04:48:23;;;;;;;;;;;;;;;14.30;99.90;101926.72;5102863;28;20051;-53
2023/08/23 04:50:53;;;;;;;6.63;3.80;;;;;;;14.17;100.00;101918.75;5104259;28;19916;-53
2023/08/23 04:53:18;;;;;;;9.80;4.03;;;;;;;14.19;100.00;101924.84;5105024;28;20024;-56
2023/08/23 04:55:44;;;;;;;10.95;4.18;;;;;;;14.14;100.00;101914.50;5104372;27;20066;-54
2023/08/23 04:58:09;;;;;;;7.20;3.78;;;;;;;14.18;100.00;101910.63;5102415;28;20024;-55
2023/08/23 05:00:35;;;;;;;10.25;4.47;;;;;;;14.23;100.00;101919.13;5103434;28;20479;-53
2023/08/23 05:03:00;;;;;;;7.53;4.05;;;;;;;14.27;100.00;101922.44;5099841;28;20034;-55
2023/08/23 05:05:26;;;;;;;7.55;4.40;;;;;;;14.27;100.00;101916.25;5101298;28;20028;-56
2023/08/23 05:07:52;;;;;;;8.68;4.00;;;;;;;14.34;100.00;101917.47;5106122;28;20051;-54
2023/08/23 05:10:18;;;;;;;8.02;4.60;;;;;;;14.31;100.00;101910.56;5100226;28;20086;-55
2023/08/23 05:12:43;;;;;;;15.13;4.65;;;;;;;14.36;100.00;101916.41;5100836;28;20028;-55
2023/08/23 05:15:08;;;;;;;10.10;4.43;;;;;;;14.41;100.00;101911.56;5105623;28;20052;-56
2023/08/23 05:17:34;;;;;;;8.57;4.35;;;;;;;14.47;100.00;101907.59;5104189;28;20398;-55
2023/08/23 05:19:59;;;;;;;10.98;4.60;;;;;;;14.50;100.00;101895.78;5103109;28;20020;-53
2023/08/23 05:22:24;;;;;;;9.48;4.10;;;;;;;14.53;100.00;101898.25;5101105;28;20089;-54
2023/08/23 05:24:49;;;;;;;8.65;4.70;;;;;;;14.55;100.00;101898.97;5103380;28;20539;-55
2023/08/23 05:27:15;;;;;;;10.88;4.63;;;;;;;14.61;100.00;101907.41;5101309;28;20024;-54
2023/08/23 05:29:40;;;;;;;11.88;4.65;;;;;;;14.64;100.00;101909.00;5104631;28;20126;-56
2023/08/23 05:32:05;;;;;;;11.32;4.55;;;;;;;14.66;100.00;101909.72;5105055;28;20024;-54
2023/08/23 05:34:31;;;;;;;8.95;4.63;;;;;;;14.67;100.00;101913.25;5098790;28;20020;-53
2023/08/23 05:36:56;;;;;;;10.23;4.60;;;;;;;14.70;100.00;101910.34;5099124;28;20035;-56
2023/08/23 05:39:21;;;;;;;11.30;4.55;;;;;;;14.72;100.00;101905.72;5099131;28;20027;-57
2023/08/23 05:41:47;;;;;;;7.38;4.80;;;;;;;14.72;100.00;101903.03;5097098;28;20024;-55
2023/08/23 05:44:12;;;;;;;7.28;4.70;;;;;;;14.72;100.00;101911.06;5094632;28;20051;-55
2023/08/23 05:46:37;;;;;;;9.18;4.70;;;;;;;14.75;100.00;101918.84;5099262;28;20051;-53
2023/08/23 05:49:02;;;;;;;14.57;4.65;;;;;;;14.78;100.00;101916.78;5099090;28;20448;-54
2023/08/23 05:51:28;;;;;;;10.05;5.00;;;;;;;14.80;100.00;101917.53;5096977;28;20024;-55
2023/08/23 05:53:53;;;;;;;15.77;4.70;;;;;;;14.81;100.00;101918.38;5099836;28;20078;-54
2023/08/23 05:56:19;;;;;;;9.50;4.35;;;;;;;14.85;100.00;101924.34;5098474;28;20107;-56
2023/08/23 05:58:44;;;;;;;14.32;5.07;;;;;;;14.90;100.00;101925.69;5100896;28;20058;-51
2023/08/23 06:01:09;;;;;;;13.23;4.78;;;;;;;14.93;100.00;101920.09;5101014;28;20028;-51
2023/08/23 06:03:35;;;;;;;15.10;4.90;;;;;;;14.98;100.00;101923.25;5103850;28;20028;-53
2023/08/23 06:06:00;;;;;;;9.75;4.40;;;;;;;15.03;100.00;101919.38;5100396;28;20024;-51
2023/08/23 06:08:25;;;;;;;11.30;4.90;;;;;;;15.06;100.00;101924.50;5101404;28;20378;-52
2023/08/23 06:10:51;;;;;;;6.47;4.93;;;;;;;15.12;100.00;101922.19;5100902;28;20067;-52
2023/08/23 06:13:16;;;;;;;9.30;6.22;;;;;;;15.16;100.00;101925.47;5092539;28;20036;-52
2023/08/23 06:15:42;;;;;;;9.70;6.20;;;;;;;15.23;100.00;101928.53;5094113;28;20115;-53
2023/08/23 06:18:07;;;;;;;7.57;6.32;;;;;;;15.28;100.00;101929.00;5096920;28;20024;-55
2023/08/23 06:20:32;;;;;;;8.13;6.47;;;;;;;15.33;100.00;101927.66;5098176;28;20038;-55
2023/08/23 06:22:58;;;;;;;7.82;6.50;;;;;;;15.39;100.00;101926.34;5093448;28;20035;-55
2023/08/23 06:25:24;;;;;;;11.18;6.70;;;;;;;15.44;100.00;101925.97;5093452;28;20035;-53
2023/08/23 06:27:50;;;;;;;8.90;6.63;;;;;;;15.52;100.00;101935.09;5092573;28;20032;-54
2023/08/23 06:30:17;;;;;;;11.48;7.00;;;;;;;15.57;100.00;101931.16;5097006;28;20119;-55
2023/08/23 06:32:47;;;;;;;13.15;7.82;;;;;;;15.66;100.00;101928.59;5103072;28;20024;-54
2023/08/23 06:35:16;;;;;;;9.75;7.78;;;;;;;15.74;100.00;101933.34;5098120;28;20076;-55
2023/08/23 06:37:42;;;;;;;10.50;7.22;;;;;;;15.84;100.00;101937.00;5094832;27;20024;-55
2023/08/23 06:40:10;;;;;;;9.95;7.72;;;;;;;15.91;100.00;101938.19;5094074;27;20016;-53
2023/08/23 06:42:36;;;;;;;8.95;7.35;;;;;;;15.99;100.00;101936.75;5099667;28;20020;-53
2023/08/23 06:45:02;;;;;;;16.25;7.25;;;;;;;16.04;100.00;101932.69;5096967;28;20016;-55
2023/08/23 06:47:27;;;;;;;10.30;7.05;;;;;;;16.13;100.00;101927.53;5101756;28;20051;-52
2023/08/23 06:49:53;;;;;;;9.48;7.82;;;;;;;16.22;100.00;101932.13;5101960;28;20052;-55
2023/08/23 06:52:18;;;;;;;12.80;8.02;;;;;;;16.32;100.00;101929.53;5095137;28;20099;-53
2023/08/23 06:54:43;;;;;;;13.50;7.75;;;;;;;16.42;100.00;101934.00;5091616;28;20542;-53
2023/08/23 06:57:08;;;;;;;12.13;8.45;;;;;;;16.57;100.00;101939.03;5096532;28;20019;-53
2023/08/23 06:59:34;;;;;;;12.32;8.20;;;;;;;16.75;100.00;101942.00;5088400;28;20362;-54
2023/08/23 07:01:59;;;;;;;10.63;7.53;;;;;;;16.91;100.00;101953.16;5093156;28;20028;-52
2023/08/23 07:04:24;;;;;;;13.77;8.10;;;;;;;17.08;100.00;101951.69;5098014;28;20373;-56
2023/08/23 07:06:50;;;;;;;11.38;8.20;;;;;;;17.27;100.00;101950.94;5097385;28;20040;-55
2023/08/23 07:09:15;;;;;;;9.70;8.32;;;;;;;17.54;100.00;101954.88;5100878;28;20027;-56
2023/08/23 07:11:40;;;;;;;11.93;8.32;;;;;;;17.77;100.00;101958.19;5104030;28;20111;-56
2023/08/23 07:14:06;;;;;;;9.77;7.40;;;;;;;18.06;100.00;101949.34;5098252;28;20024;-56
2023/08/23 07:16:32;;;;;;;12.60;7.60;;;;;;;18.40;100.00;101965.06;5104367;28;20385;-55
2023/08/23 07:18:57;;;;;;;8.15;6.90;;;;;;;18.72;100.00;101959.41;5100920;28;20069;-55
2023/08/23 07:21:22;;;;;;;12.38;6.78;;;;;;;19.01;99.37;101962.06;5102876;28;20020;-56
2023/08/23 07:23:48;;;;;;;7.55;6.15;;;;;;;19.33;97.42;101968.91;5096443;28;20032;-55
2023/08/23 07:26:13;;;;;;;10.65;6.43;;;;;;;19.53;94.94;101966.13;5103272;28;20020;-56
2023/08/23 07:28:39;;;;;;;9.63;6.05;;;;;;;19.77;92.56;101974.56;5097860;28;20051;-55
2023/08/23 07:31:04;;;;;;;8.05;5.32;;;;;;;20.01;93.00;101967.72;5102056;28;20060;-56
2023/08/23 07:33:29;;;;;;;11.77;5.88;;;;;;;20.26;90.70;101974.22;5090396;28;20385;-56
2023/08/23 07:36:01;;;;;;;7.22;5.28;;;;;;;20.57;89.78;101981.94;5098489;28;20377;-55
2023/08/23 07:38:28;;;;;;;9.00;5.15;;;;;;;20.84;85.74;101980.97;5096102;28;20028;-55
2023/08/23 07:40:57;;;;;;;9.60;5.47;;;;;;;21.15;82.78;101977.81;5092304;28;20027;-56
2023/08/23 07:43:23;;;;;;;12.90;6.03;;;;;;;21.32;81.46;101986.03;5096251;28;20042;-55
2023/08/23 07:45:56;;;;;;;7.68;5.30;;;;;;;21.61;81.22;101977.56;5099773;28;20478;-55
2023/08/23 07:48:22;;;;;;;7.57;5.47;;;;;;;21.72;77.47;101992.66;5091459;28;20027;-56
2023/08/23 07:50:49;;;;;;;10.75;5.38;;;;;;;22.09;78.19;101983.31;5095623;28;20469;-55
2023/08/23 07:53:15;;;;;;;6.80;5.53;;;;;;;22.41;79.11;101987.94;5100901;28;20496;-56
2023/08/23 07:55:40;;;;;;;9.40;5.65;;;;;;;22.56;75.37;101985.41;5103295;28;20031;-55
2023/08/23 07:58:06;;;;;;;6.68;4.90;;;;;;;22.82;74.45;101977.09;5100020;28;20027;-54
2023/08/23 08:00:31;;;;;;;7.72;5.15;;;;;;;23.05;75.66;101984.53;5100725;28;20032;-54
2023/08/23 08:02:56;;;;;;;11.98;5.30;;;;;;;23.35;72.44;101979.38;5090277;28;20039;-55
2023/08/23 08:05:22;;;;;;;11.52;5.10;;;;;;;23.44;70.47;101981.91;5096844;28;20028;-55
2023/08/23 08:07:47;;;;;;;10.05;5.20;;;;;;;23.63;69.16;101980.66;5099114;28;20143;-54
2023/08/23 08:10:12;;;;;;;6.85;4.45;;;;;;;23.75;69.65;101977.56;5096469;28;20087;-55
2023/08/23 08:12:38;;;;;;;8.75;4.28;;;;;;;24.01;69.12;101985.38;5099563;28;20110;-55
2023/08/23 08:15:06;;;;;;;9.02;4.80;;;;;;;24.15;65.58;101978.38;5100633;28;20032;-55
2023/08/23 08:17:32;;;;;;;7.33;4.20;;;;;;;24.32;68.06;101976.38;5096964;28;20058;-55
2023/08/23 08:19:57;;;;;;;5.93;4.55;;;;;;;24.60;65.87;101982.13;5099962;28;20136;-52
2023/08/23 08:22:23;;;;;;;7.07;4.50;;;;;;;24.79;62.98;101986.19;5095358;28;20533;-55
2023/08/23 08:24:48;;;;;;;5.95;4.38;;;;;;;25.02;65.14;101974.44;5100378;28;20290;-54
2023/08/23 08:27:14;;;;;;;8.00;4.18;;;;;;;25.08;61.91;101988.13;5104934;28;20011;-52
2023/08/23 08:29:39;;;;;;;6.40;3.75;;;;;;;25.39;59.40;101986.28;5096363;28;20435;-52
2023/08/23 08:32:05;;;;;;;5.30;3.33;;;;;;;25.42;60.54;101978.59;5097625;28;20098;-53
2023/08/23 08:34:30;;;;;;;5.18;3.15;;;;;;;25.55;58.79;101971.66;5102022;28;20028;-53
2023/08/23 08:36:55;;;;;;;8.70;3.28;;;;;;;25.89;59.07;101970.16;5097793;28;20024;-55
2023/08/23 08:39:21;;;;;;;4.57;3.55;;;;;;;26.00;60.04;101965.09;5098727;28;20126;-52
2023/08/23 08:41:46;;;;;;;6.95;3.38;;;;;;;26.21;58.16;101964.25;5097977;28;20022;-53
2023/08/23 08:44:12;;;;;;;6.57;3.28;;;;;;;26.33;55.20;101961.84;5100198;28;20044;-53
2023/08/23 08:46:39;;;;;;;7.35;3.30;;;;;;;26.46;56.07;101961.13;5092125;28;20020;-53
2023/08/23 08:49:04;;;;;;;6.65;2.83;;;;;;;26.72;55.11;101957.81;5089758;28;20670;-55
2023/08/23 08:51:35;;;;;;;4.73;2.50;;;;;;;26.96;55.73;101961.13;5096190;28;20024;-53
2023/08/23 08:54:02;;;;;;;9.00;2.95;;;;;;;27.18;54.48;101967.34;5094732;28;20770;-55
2023/08/23 08:56:28;;;;;;;8.45;2.80;;;;;;;27.46;53.25;101964.59;5096547;28;20035;-52
2023/08/23 08:58:54;;;;;;;7.90;2.80;;;;;;;27.49;50.41;101966.06;5092297;28;20028;-54
2023/08/23 09:01:21;;;;;;;4.90;2.60;;;;;;;27.66;52.43;101963.81;5094306;28;20070;-55
2023/08/23 09:03:47;;;;;;;5.85;3.10;;;;;;;27.88;50.37;101965.38;5093186;28;20024;-53
2023/08/23 09:06:13;;;;;;;4.90;2.65;;;;;;;28.08;51.51;101967.34;5098623;28;20063;-52
2023/08/23 09:08:39;;;;;;;8.40;2.90;;;;;;;28.27;50.11;101957.50;5099020;28;20127;-54
2023/08/23 09:11:04;;;;;;;3.95;2.78;;;;;;;28.35;47.81;101956.47;5091672;28;20054;-55
2023/08/23 09:13:29;;;;;;;8.90;2.83;;;;;;;28.48;48.58;101953.72;5094302;28;20056;-53
2023/08/23 09:15:58;;;;;;;5.70;2.38;;;;;;;28.49;48.39;101957.28;5095837;28;20032;-53
2023/08/23 09:18:23;;;;;;;5.35;2.70;;;;;;;28.69;46.80;101962.78;5098558;28;20034;-55
2023/08/23 09:20:49;;;;;;;7.37;3.23;;;;;;;28.79;47.14;101964.06;5095299;28;20024;-53
2023/08/23 09:23:14;;;;;;;13.57;3.40;;;;;;;29.09;47.94;101960.00;5101401;28;20270;-55
2023/08/23 09:25:40;;;;;;;10.18;5.03;;;;;;;29.23;46.43;101958.94;5099937;28;20035;-54
2023/08/23 09:28:11;;;;;;;5.35;3.45;;;;;;;29.38;48.37;101960.56;5096118;28;20024;-53
2023/08/23 09:30:36;;;;;;;5.68;3.42;;;;;;;29.36;46.62;101971.72;5100869;28;20039;-53
2023/08/23 09:33:02;;;;;;;6.47;3.83;;;;;;;29.48;46.39;101967.25;5099554;28;20031;-53
2023/08/23 09:35:29;;;;;;;7.40;4.07;;;;;;;29.62;46.79;101979.00;5061872;28;20032;-54
2023/08/23 09:37:54;;;;;;;9.60;4.60;;;;;;;29.64;45.03;101965.09;5097050;28;20057;-51
2023/08/23 09:40:23;;;;;;;5.88;3.80;;;;;;;29.90;44.76;101972.38;5104716;28;20481;-54
2023/08/23 09:42:50;;;;;;;4.10;3.47;;;;;;;30.21;44.83;101957.84;5101942;28;20046;-53
2023/08/23 09:45:18;;;;;;;7.05;3.60;;;;;;;30.33;44.31;101948.91;5092269;28;20378;-53
2023/08/23 09:47:50;;;;;;;9.07;4.63;;;;;;;30.47;44.14;101953.22;5099245;28;20034;-54
2023/08/23 09:50:17;;;;;;;8.88;4.53;;;;;;;30.39;42.88;101954.38;5094666;28;20956;-54
2023/08/23 09:52:44;;;;;;;6.65;4.85;;;;;;;30.44;43.63;101954.53;5099727;28;20024;-53
2023/08/23 09:55:13;;;;;;;7.85;4.43;;;;;;;30.73;43.79;101954.91;5097858;28;20114;-51
2023/08/23 09:57:40;;;;;;;6.10;4.75;;;;;;;30.69;42.98;101953.66;5101318;28;20028;-51
2023/08/23 10:00:07;;;;;;;6.68;4.20;;;;;;;30.88;43.29;101950.97;5096601;28;20028;-51
2023/08/23 10:02:33;;;;;;;6.70;4.45;;;;;;;31.04;41.91;101955.03;5100901;27;20024;-52
2023/08/23 10:05:00;;;;;;;7.50;4.72;;;;;;;31.02;43.65;101951.69;5088721;28;20111;-51
2023/08/23 10:07:26;;;;;;;9.43;4.37;;;;;;;30.97;42.03;101963.34;5098596;28;20073;-53
2023/08/23 10:09:51;;;;;;;10.75;4.72;;;;;;;30.84;41.68;101955.22;5099379;28;20639;-51
2023/08/23 10:12:19;;;;;;;9.18;3.63;;;;;;;31.00;42.16;101951.91;5097916;28;20024;-51
2023/08/23 10:14:46;;;;;;;6.63;4.38;;;;;;;31.10;41.94;101959.63;5099978;28;20036;-53
2023/08/23 10:17:16;;;;;;;6.10;4.27;;;;;;;31.02;40.89;101951.69;5099604;28;20123;-53
2023/08/23 10:19:47;;;;;;;9.77;3.92;;;;;;;31.05;40.38;101954.81;5097439;28;20281;-50
2023/08/23 10:22:13;;;;;;;8.60;4.25;;;;;;;31.43;40.67;101951.00;5095418;28;20118;-50
2023/08/23 10:24:38;;;;;;;4.78;3.70;;;;;;;31.33;41.38;101945.22;5101533;28;20050;-52
2023/08/23 10:27:08;;;;;;;8.80;3.78;;;;;;;31.54;41.22;101949.41;5092227;28;20024;-53
2023/08/23 10:29:37;;;;;;;8.05;3.90;;;;;;;31.63;40.52;101950.75;5101949;28;20023;-54
2023/08/23 10:32:13;;;;;;;6.28;3.90;;;;;;;31.91;41.23;101952.91;5096202;28;20485;-53
2023/08/23 10:34:40;;;;;;;5.43;3.40;;;;;;;31.87;39.95;101942.59;5101674;28;20402;-54
2023/08/23 10:37:16;;;;;;;6.88;4.50;;;;;;;32.04;40.66;101949.13;5100527;28;20422;-53
2023/08/23 10:39:49;;;;;;;6.32;3.88;;;;;;;32.30;40.72;101952.53;5102519;28;20024;-53
2023/08/23 10:42:19;;;;;;;5.93;4.38;;;;;;;32.22;39.19;101945.47;5097393;28;20050;-52
2023/08/23 10:44:56;;;;;;;10.68;4.70;;;;;;;32.24;38.66;101937.00;5101282;28;20540;-55
2023/08/23 10:47:22;;;;;;;6.45;3.72;;;;;;;32.26;37.41;101937.63;5099318;28;20132;-54
2023/08/23 10:49:49;;;;;;;5.07;3.60;;;;;;;32.06;35.08;101938.75;5095263;28;20139;-58
2023/08/23 10:52:14;;;;;;;4.40;2.70;;;;;;;32.40;36.30;101932.72;5098395;28;20038;-52
2023/08/23 10:54:40;;;;;;;5.20;2.92;;;;;;;32.39;36.42;101929.16;5099422;28;20023;-52
2023/08/23 10:57:05;;;;;;;4.97;2.60;;;;;;;32.54;36.73;101925.91;5100322;28;20023;-53
2023/08/23 10:59:31;;;;;;;6.20;3.10;;;;;;;32.59;35.59;101927.94;5098662;28;20143;-53
2023/08/23 11:01:56;;;;;;;3.53;2.58;;;;;;;32.75;34.82;101926.41;5095506;28;20385;-52
2023/08/23 11:04:22;;;;;;;5.03;2.60;;;;;;;33.00;36.42;101915.97;5103251;28;20386;-53
2023/08/23 11:06:48;;;;;;;6.70;3.10;;;;;;;33.06;34.77;101910.56;5099304;28;20110;-55
2023/08/23 11:09:15;;;;;;;5.75;3.10;;;;;;;33.17;34.07;101912.50;5098657;28;20064;-52
2023/08/23 11:11:42;;;;;;;5.97;3.13;;;;;;;33.41;34.61;101899.50;5103009;28;20469;-54
2023/08/23 11:14:07;;;;;;;8.13;3.72;;;;;;;33.35;33.58;101897.72;5101275;28;20027;-54
2023/08/23 11:16:33;;;;;;;4.85;2.78;;;;;;;33.28;33.42;101897.03;5100127;28;20036;-54